Map

Track Data

SID SEASON NUMBER BASIN SUBBASIN NAME ISO_TIME NATURE LAT LON WMO_WIND WMO_PRES WMO_AGENCY TRACK_TYPE DIST2LAND LANDFALL IFLAG USA_AGENCY USA_ATCF_ID USA_LAT USA_LON USA_RECORD USA_STATUS USA_WIND USA_PRES USA_SSHS USA_R34_NE USA_R34_SE USA_R34_SW USA_R34_NW USA_R50_NE USA_R50_SE USA_R50_SW USA_R50_NW USA_R64_NE USA_R64_SE USA_R64_SW USA_R64_NW USA_POCI USA_ROCI USA_RMW USA_EYE TOKYO_LAT TOKYO_LON TOKYO_GRADE TOKYO_WIND TOKYO_PRES TOKYO_R50_DIR TOKYO_R50_LONG TOKYO_R50_SHORT TOKYO_R30_DIR TOKYO_R30_LONG TOKYO_R30_SHORT TOKYO_LAND CMA_LAT CMA_LON CMA_CAT CMA_WIND CMA_PRES HKO_LAT HKO_LON HKO_CAT HKO_WIND HKO_PRES NEWDELHI_LAT NEWDELHI_LON NEWDELHI_GRADE NEWDELHI_WIND NEWDELHI_PRES NEWDELHI_CI NEWDELHI_DP NEWDELHI_POCI REUNION_LAT REUNION_LON REUNION_TYPE REUNION_WIND REUNION_PRES REUNION_TNUM REUNION_CI REUNION_RMW REUNION_R34_NE REUNION_R34_SE REUNION_R34_SW REUNION_R34_NW REUNION_R50_NE REUNION_R50_SE REUNION_R50_SW REUNION_R50_NW REUNION_R64_NE REUNION_R64_SE REUNION_R64_SW REUNION_R64_NW BOM_LAT BOM_LON BOM_TYPE BOM_WIND BOM_PRES BOM_TNUM BOM_CI BOM_RMW BOM_R34_NE BOM_R34_SE BOM_R34_SW BOM_R34_NW BOM_R50_NE BOM_R50_SE BOM_R50_SW BOM_R50_NW BOM_R64_NE BOM_R64_SE BOM_R64_SW BOM_R64_NW BOM_ROCI BOM_POCI BOM_EYE BOM_POS_METHOD BOM_PRES_METHOD NADI_LAT NADI_LON NADI_CAT NADI_WIND NADI_PRES WELLINGTON_LAT WELLINGTON_LON WELLINGTON_WIND WELLINGTON_PRES DS824_LAT DS824_LON DS824_STAGE DS824_WIND DS824_PRES TD9636_LAT TD9636_LON TD9636_STAGE TD9636_WIND TD9636_PRES TD9635_LAT TD9635_LON TD9635_WIND TD9635_PRES TD9635_ROCI NEUMANN_LAT NEUMANN_LON NEUMANN_CLASS NEUMANN_WIND NEUMANN_PRES MLC_LAT MLC_LON MLC_CLASS MLC_WIND MLC_PRES USA_GUST BOM_GUST BOM_GUST_PER REUNION_GUST REUNION_GUST_PER USA_SEAHGT USA_SEARAD_NE USA_SEARAD_SE USA_SEARAD_SW USA_SEARAD_NW STORM_SPEED STORM_DIR
1971195N24183 1971 73 EP CP MARY 1971-07-14 00:00:00 NR 24.2000 182.600 main 1814 1814 __________O___ -1 24.2000 -177.400 1 20 14 274
1971195N24183 1971 73 EP CP MARY 1971-07-14 03:00:00 NR 24.2533 181.814 main 1896 1896 __________P___ -1 24.2533 -178.186 1 20 14 275
1971195N24183 1971 73 EP CP MARY 1971-07-14 06:00:00 NR 24.3137 181.033 main 1977 1977 __________P___ -1 24.3137 -178.967 1 20 14 276
1971195N24183 1971 73 EP CP MARY 1971-07-14 09:00:00 NR 24.3922 180.260 main 2048 2048 __________P___ -1 24.3922 -179.740 1 20 14 278
1971195N24183 1971 73 WP MM MARY 1971-07-14 12:00:00 NR 24.5000 179.500 main 2130 2130 __________O___ -1 24.5000 179.500 1 20 14 281
1971195N24183 1971 73 WP MM MARY 1971-07-14 15:00:00 NR 24.6461 178.754 main 2201 2201 __________P___ -1 24.6461 178.754 1 21 14 284
1971195N24183 1971 73 WP MM MARY 1971-07-14 18:00:00 NR 24.8301 178.014 main 2283 2283 __________P___ -1 24.8301 178.014 1 22 14 287
1971195N24183 1971 73 WP MM MARY 1971-07-14 21:00:00 NR 25.0491 177.266 main 2355 2355 __________P___ -1 25.0491 177.266 1 23 15 289
1971195N24183 1971 73 WP MM MARY 1971-07-15 00:00:00 NR 25.3000 176.500 main 2437 2437 __________O___ -1 25.3000 176.500 1 25 15 290
1971195N24183 1971 73 WP MM MARY 1971-07-15 03:00:00 NR 25.5747 175.693 main 2519 2519 __________P___ -1 25.5747 175.693 1 25 16 291
1971195N24183 1971 73 WP MM MARY 1971-07-15 06:00:00 NR 25.8767 174.865 main 2602 2602 __________P___ -1 25.8767 174.865 1 25 16 292
1971195N24183 1971 73 WP MM MARY 1971-07-15 09:00:00 NR 26.1902 174.030 main 2694 2694 __________P___ -1 26.1902 174.030 1 25 16 293
1971195N24183 1971 73 WP MM MARY 1971-07-15 12:00:00 NR 26.5000 173.200 main 2776 2776 __________O___ -1 26.5000 173.200 1 25 16 293
1971195N24183 1971 73 WP MM MARY 1971-07-15 15:00:00 NR 26.8304 172.366 main 2857 2816 __________P___ -1 26.8304 172.366 1 26 16 294
1971195N24183 1971 73 WP MM MARY 1971-07-15 18:00:00 NR 27.1470 171.542 main 2810 2743 __________P___ -1 27.1470 171.542 1 27 16 292
1971195N24183 1971 73 WP MM MARY 1971-07-15 21:00:00 NR 27.4150 170.747 main 2737 2737 __________P___ -1 27.4150 170.747 1 28 12 254
1971195N24183 1971 73 WP MM MARY 1971-07-16 00:00:00 TS 26.8333 170.283 1012 tokyo main 2769 2760 _OO_______O___ -1 25.2000 171.300 2 1012 0 0 0 25.4000 170.400 0 19 1010 27.6000 170.000 1 30 12 227
1971195N24183 1971 73 WP MM MARY 1971-07-16 03:00:00 TS 26.5937 169.760 main 2760 2737 _PP_______P___ -1 25.4529 170.576 2 1010 0 0 25.5878 169.810 0 21 1009 27.6671 169.326 1 31 10 252
1971195N24183 1971 73 WP MM MARY 1971-07-16 06:00:00 TS 26.5108 169.181 1008 tokyo main 2737 2705 _OO_______P___ -1 25.7000 169.800 2 1008 0 0 0 25.8000 169.200 1 23 1008 27.6521 168.702 1 32 11 266
1971195N24183 1971 73 WP MM MARY 1971-07-16 09:00:00 TS 26.5262 168.541 main 2700 2649 _PP_______P___ -1 25.9425 168.950 2 1007 0 0 26.0501 168.570 1 23 1007 27.5861 168.102 1 33 12 278
1971195N24183 1971 73 WP MM MARY 1971-07-16 12:00:00 TS 26.6667 167.867 1006 tokyo main 2649 2603 _OO_______O___ -1 26.2000 168.100 2 1006 0 0 0 26.3000 168.000 1 23 1006 27.5000 167.500 2 35 12 283
1971195N24183 1971 73 WP MM MARY 1971-07-16 15:00:00 TS 26.7922 167.209 main 2603 2562 _PP_______P___ -1 26.4770 167.327 2 1004 0 0 26.5072 167.555 1 26 1003 27.3924 166.746 2 35 12 283
1971195N24183 1971 73 WP MM MARY 1971-07-16 18:00:00 TS 26.9258 166.601 1002 tokyo main 2562 2512 _OO_______P___ -1 26.8000 166.600 2 1002 0 0 0 26.7000 167.200 1 29 1000 27.2775 166.003 2 35 11 286
1971195N24183 1971 73 WP MM MARY 1971-07-16 21:00:00 TS 27.0996 166.013 main 2512 2468 _PP_______P___ -1 27.2005 165.803 2 1000 0 0 26.8999 166.877 1 33 1000 27.1986 165.359 2 35 10 290
1971195N24183 1971 73 WP MM MARY 1971-07-17 00:00:00 TS 27.2769 165.523 998 tokyo main 2468 2439 _OOO______O___ -1 27.6000 165.200 9 998 0 0 0 27.1000 166.600 2 38 1000 27.0000 165.000 TD 30 1000 27.2000 164.900 2 35 7 302
1971195N24183 1971 73 WP MM MARY 1971-07-17 03:00:00 TS 27.4797 165.316 main 2439 2415 _PPP______P___ -1 27.9369 164.994 9 999 0 0 27.2850 166.327 2 38 1000 27.2400 165.110 TD 30 1000 27.3369 164.731 2 36 5 324
1971195N24183 1971 73 WP MM MARY 1971-07-17 06:00:00 TS 27.6851 165.188 1000 tokyo main 2415 2395 OOOO_____OPO__ jtwc_wp WP171971 27.6000 164.800 40 0 28.2000 165.000 9 1000 0 0 0 27.5000 166.100 2 38 1000 27.5000 165.200 TD 30 1000 27.6000 164.800 TC 40 27.5581 164.747 2 37 27.6000 164.800 40 998 120 5 342
1971195N24183 1971 73 WP MM MARY 1971-07-17 09:00:00 TS 27.9162 165.163 main 2395 2366 PPPP_____PPP__ WP171971 27.8475 164.907 40 0 28.3650 164.977 9 1000 0 0 27.7849 165.935 2 38 1000 27.7925 165.258 TD 30 1000 27.8475 164.907 TC 40 27.8253 164.865 2 38 27.8475 164.907 40 998 120 5 0
1971195N24183 1971 73 WP MM MARY 1971-07-17 12:00:00 TS 28.1640 165.176 1000 tokyo main 2366 2347 OOOO_____OOO__ jtwc_wp WP171971 28.1000 165.000 40 0 28.5000 165.000 9 1000 0 0 0 28.1000 165.800 2 38 1000 28.1000 165.300 TD 30 1000 28.1000 165.000 TC 40 28.1000 165.000 2 40 28.1000 165.000 40 999 120 5 0
1971195N24183 1971 73 WP MM MARY 1971-07-17 15:00:00 TS 28.4138 165.186 main 2347 2328 PPPP_____PPP__ WP171971 28.3575 165.065 40 0 28.6925 165.057 9 1000 0 0 28.4075 165.635 2 38 1000 28.4075 165.372 TD 30 1000 28.3575 165.065 TC 40 28.3169 165.045 2 41 28.3575 165.065 40 999 120 5 3
1971195N24183 1971 73 WP MM MARY 1971-07-17 18:00:00 TS 28.6621 165.198 1000 tokyo main 2319 2300 OOOO_____OPO__ jtwc_wp WP171971 28.6000 165.100 40 0 28.9000 165.100 9 1000 0 0 0 28.7000 165.500 2 38 1000 28.7000 165.400 TD 30 1000 28.6000 165.100 TC 40 28.5350 165.087 2 42 28.6000 165.100 40 999 120 5 358
1971195N24183 1971 73 WP MM MARY 1971-07-17 21:00:00 TS 28.8801 165.186 main 2300 2276 PPPP_____PPP__ WP171971 28.7925 165.115 42 0 29.1000 165.073 9 1000 0 0 28.9574 165.450 2 38 1000 28.9650 165.323 TD 32 997 28.7925 165.115 TC 42 28.7606 165.111 2 43 28.7925 165.115 42 999 150 4 356
1971195N24183 1971 73 WP MM MARY 1971-07-18 00:00:00 TS 29.1000 165.143 1000 tokyo main 2276 2257 OOOO_____OOO__ jtwc_wp WP171971 29.0000 165.100 45 0 29.3000 165.000 9 1000 0 0 0 29.2000 165.400 2 38 1000 29.2000 165.200 TS 35 995 29.0000 165.100 TC 45 29.0000 165.100 2 45 29.0000 165.100 45 1000 180 5 349
1971195N24183 1971 73 WP MM MARY 1971-07-18 03:00:00 TS 29.3510 165.085 main 2247 2223 PPPP_____PPP__ WP171971 29.2925 165.072 50 0 29.4850 164.922 9 995 0 0 29.4424 165.287 2 43 997 29.4000 165.107 TS 40 992 29.2925 165.072 TC 50 29.2523 165.064 2 51 29.2925 165.072 50 993 180 5 345
1971195N24183 1971 73 WP MM MARY 1971-07-18 06:00:00 TS 29.6171 164.984 990 tokyo main 2223 2185 OOOO_____OPO__ jtwc_wp WP171971 29.6000 165.000 55 0 29.7000 164.800 9 990 0 0 0 29.7000 165.100 3 48 994 29.6000 165.000 TS 45 990 29.6000 165.000 TC 55 29.5197 164.989 2 57 29.6000 165.000 55 987 180 6 338
1971195N24183 1971 73 WP MM MARY 1971-07-18 09:00:00 TS 29.8839 164.831 main 2185 2156 PPPP_____PPP__ WP171971 29.8500 164.880 62 0 29.9925 164.615 9 985 0 0 30.0001 164.823 3 53 986 29.8424 164.872 TS 50 987 29.8500 164.880 TC 62 29.8022 164.870 2 63 29.8500 164.880 62 982 180 6 330
1971195N24183 1971 73 WP MM MARY 1971-07-18 12:00:00 TS 30.1571 164.629 980 tokyo main 2146 2117 OOOO_____OOO__ jtwc_wp WP171971 30.1000 164.700 70 1 30.3000 164.400 9 980 0 0 0 30.3000 164.500 3 58 978 30.1000 164.700 STS 55 985 30.1000 164.700 TC 70 30.1000 164.700 3 70 30.1000 164.700 70 978 180 7 325
1971195N24183 1971 73 WP MM MARY 1971-07-18 15:00:00 TS 30.4290 164.397 main 2117 2073 PPPP_____PPP__ WP171971 30.3850 164.472 75 1 30.5499 164.207 9 977 0 0 30.5575 164.192 3 63 975 30.3425 164.465 STS 60 982 30.3850 164.472 TC 75 30.3983 164.495 3 71 30.3850 164.472 75 976 180 7 323
1971195N24183 1971 73 WP MM MARY 1971-07-18 18:00:00 TS 30.7160 164.134 975 tokyo main 2073 2035 OOOO_____OPO__ jtwc_wp WP171971 30.7000 164.200 80 1 30.8000 164.000 9 975 0 0 0 30.8000 163.900 4 68 973 30.6000 164.200 T 65 980 30.7000 164.200 TC 80 30.7123 164.239 3 72 30.7000 164.200 80 974 180 7 323
1971195N24183 1971 73 WP MM MARY 1971-07-18 21:00:00 TS 31.0210 163.869 main 2035 1991 PPPP_____PPP__ WP171971 31.0349 163.922 77 1 31.0925 163.757 9 975 0 0 31.0274 163.635 4 68 974 30.8772 163.987 T 67 977 31.0349 163.922 TC 77 31.0451 163.938 3 73 31.0349 163.922 77 975 210 8 323
1971195N24183 1971 73 WP MM MARY 1971-07-19 00:00:00 TS 31.3571 163.571 975 tokyo main 1982 1938 OOOO_____OOO__ jtwc_wp WP171971 31.4000 163.600 75 1 31.4000 163.500 9 975 0 0 0 31.3000 163.400 4 68 975 31.2000 163.700 T 70 975 31.4000 163.600 TC 75 31.4000 163.600 4 75 31.4000 163.600 75 976 240 9 322
1971195N24183 1971 73 WP MM MARY 1971-07-19 03:00:00 TS 31.7209 163.230 main 1933 1880 PPPP_____PPP__ WP171971 31.7925 163.215 72 1 31.6697 163.287 9 975 0 0 31.6621 163.237 4 68 975 31.5703 163.223 T 70 975 31.7925 163.215 TC 72 31.7667 163.220 4 72 31.7925 163.215 72 976 210 10 321
1971195N24183 1971 73 WP MM MARY 1971-07-19 06:00:00 TS 32.1222 162.844 975 tokyo main 1875 1817 OOOO_____OPO__ jtwc_wp WP171971 32.2000 162.800 70 1 32.0000 163.000 9 975 0 0 0 32.1000 163.000 4 68 975 32.0000 162.700 T 70 975 32.2000 162.800 TC 70 32.1557 162.808 4 70 32.2000 162.800 70 976 180 11 321
1971195N24183 1971 73 WP MM MARY 1971-07-19 09:00:00 TS 32.5570 162.419 main 1808 1750 PPPP_____PPP__ WP171971 32.5924 162.400 67 1 32.4778 162.531 9 977 0 0 32.5928 162.538 4 68 975 32.4848 162.277 T 67 975 32.5924 162.400 TC 67 32.5667 162.392 4 67 32.5924 162.400 67 977 180 12 321
1971195N24183 1971 73 WP MM MARY 1971-07-19 12:00:00 TS 33.0143 161.986 980 tokyo main 1750 1693 OOOO_____OOO__ jtwc_wp WP171971 33.0000 162.000 65 1 33.0000 162.000 9 980 0 0 0 33.1000 162.000 4 68 975 33.0000 161.900 T 65 975 33.0000 162.000 TC 65 33.0000 162.000 4 65 33.0000 162.000 65 978 180 12 321
1971195N24183 1971 73 WP MM MARY 1971-07-19 15:00:00 TS 33.4615 161.549 main 1678 1626 PPPP_____PPP__ WP171971 33.4351 161.570 62 0 33.4501 161.505 9 980 0 0 33.5501 161.505 4 63 975 33.5000 161.520 T 65 975 33.4351 161.570 TC 62 33.4251 161.604 4 62 33.4351 161.570 62 977 150 11 323
1971195N24183 1971 73 WP MM MARY 1971-07-19 18:00:00 TS 33.9250 161.178 980 tokyo main 1626 1564 OOOO_____OPO__ jtwc_wp WP171971 33.9000 161.200 60 0 33.9000 161.100 9 980 0 0 0 34.0000 161.100 3 58 975 34.0000 161.200 T 65 975 33.9000 161.200 TC 60 33.8752 161.245 4 60 33.9000 161.200 60 977 120 11 331
1971195N24183 1971 73 WP MM MARY 1971-07-19 21:00:00 TS 34.4167 160.906 main 1564 1513 PPPP_____PPP__ WP171971 34.3774 160.940 57 0 34.4073 160.810 9 982 0 0 34.5223 160.810 3 53 977 34.4924 160.940 T 62 977 34.3774 160.940 TC 57 34.3626 160.964 4 57 34.3774 160.940 57 974 120 11 342
1971195N24183 1971 73 WP MM MARY 1971-07-20 00:00:00 TS 34.9286 160.771 985 tokyo main 1513 1462 OOOO_____OOO__ jtwc_wp WP171971 34.9000 160.800 55 0 34.9000 160.700 9 985 0 0 0 35.0000 160.700 3 48 980 35.0000 160.800 STS 60 980 34.9000 160.800 TC 55 34.9000 160.800 2 55 34.9000 160.800 55 971 120 10 353
1971195N24183 1971 73 WP MM MARY 1971-07-20 03:00:00 TS 35.4209 160.756 main 1467 1423 PPPP_____PPP__ WP171971 35.4699 160.733 52 0 35.2850 160.797 9 985 0 0 35.2699 160.775 3 43 982 35.5199 160.783 STS 55 982 35.4699 160.733 TC 52 35.4620 160.736 2 52 35.4699 160.733 52 973 120 10 5
1971195N24183 1971 73 WP MM MARY 1971-07-20 06:00:00 TS 35.9683 160.871 985 tokyo main 1419 1376 OOOO_____OPO__ jtwc_wp WP171971 36.1000 160.800 50 0 35.7000 161.000 9 985 0 0 0 35.6000 161.000 2 38 985 36.1000 160.900 STS 50 985 36.1000 160.800 TC 50 36.0783 160.800 2 50 36.1000 160.800 50 976 120 12 12
1971195N24183 1971 73 WP MM MARY 1971-07-20 09:00:00 TS 36.6037 161.077 main 1376 1326 PPPP_____PPP__ WP171971 36.7701 161.012 47 0 36.1799 161.122 9 987 0 0 36.2101 161.277 2 38 986 36.7701 161.112 STS 42 987 36.7701 161.012 TC 47 36.7555 160.989 2 47 36.7701 161.012 47 982 90 14 16
1971195N24183 1971 73 WP MM MARY 1971-07-20 12:00:00 TS 37.3167 161.363 990 tokyo main 1332 1276 OOOO_____OOO__ jtwc_wp WP171971 37.5000 161.300 45 0 36.9000 161.300 9 990 0 0 0 37.0000 161.600 2 38 987 37.5000 161.400 TS 35 990 37.5000 161.300 TC 45 37.5000 161.300 2 45 37.5000 161.300 45 988 60 17 17
1971195N24183 1971 73 WP MM MARY 1971-07-20 15:00:00 TS 38.1820 161.672 main 1274 1222 PPPP_____PPP__ WP171971 38.2850 161.562 42 0 38.0999 161.596 9 990 0 0 37.8623 161.886 2 38 988 38.2476 161.699 TS 32 992 38.2850 161.562 TC 42 38.3967 161.684 2 42 38.2850 161.562 42 988 60 19 17
1971195N24183 1971 73 WP MM MARY 1971-07-20 18:00:00 TS 39.1292 162.061 990 tokyo main 1229 1196 OOOO_____OPO__ jtwc_wp WP171971 39.1000 161.800 40 0 39.3000 162.000 9 990 0 0 0 38.8000 162.200 2 38 990 39.0000 162.000 TD 30 995 39.1000 161.800 TC 40 39.3419 162.195 2 40 39.1000 161.800 40 989 60 20 21
1971195N24183 1971 73 WP MM MARY 1971-07-20 21:00:00 TS 39.9982 162.591 main 1196 1182 _PP_______P___ WP171971 -1 39.9820 162.450 9 991 0 0 39.7714 162.513 2 38 991 TD TC 40.2411 162.809 2 37 18 28
1971195N24183 1971 73 WP MM MARY 1971-07-21 00:00:00 TS 40.7091 163.136 992 tokyo main 1183 1156 _OO_______O___ -1 40.5000 163.000 9 992 0 0 0 40.7000 163.000 2 38 992 41.0000 163.500 2 35 16 34
1971195N24183 1971 73 WP MM MARY 1971-07-21 03:00:00 TS 41.3512 163.803 main 1150 1132 _PP_______P___ -1 41.1030 163.585 9 993 0 0 41.4951 163.803 2 33 993 41.5597 164.237 2 27 17 41
1971195N24183 1971 73 WP MM MARY 1971-07-21 06:00:00 TS 41.9750 164.625 995 tokyo main 1128 1102 _OO_______O___ -1 41.8000 164.400 9 995 0 0 0 42.2000 164.800 1 29 995 42.0000 165.000 1 20 20 43
1971195N24183 1971 73 WP MM MARY 1971-07-21 09:00:00 TS 42.7955 165.589 main 1103 1095 _PP___________ -1 42.7625 165.463 9 997 0 0 42.8615 165.841 1 26 997 1 24 47
1971195N24183 1971 73 WP MM MARY 1971-07-21 12:00:00 ET 43.5800 166.980 1000 tokyo main 1112 1112 _OO___________ -1 43.6000 167.000 6 1000 0 0 0 43.5000 166.900 9 23 1000 27 66
1971195N24183 1971 73 WP MM MARY 1971-07-21 15:00:00 ET 43.9326 169.039 main 1186 1186 _P____________ -1 43.9326 169.039 6 1002 0 0 9 33 83
1971195N24183 1971 73 WP MM MARY 1971-07-21 18:00:00 ET 44.0000 171.500 1004 tokyo main 1307 1307 _O____________ -1 44.0000 171.500 6 1004 0 0 0 37 89
1971195N24183 1971 73 WP MM MARY 1971-07-21 21:00:00 ET 44.0185 174.195 main 1440 1436 _P____________ -1 44.0185 174.195 6 1005 0 0 39 90
1971195N24183 1971 73 WP MM MARY 1971-07-22 00:00:00 ET 44.0000 177.000 1006 tokyo main 1426 _O____________ -1 44.0000 177.000 6 1006 0 0 0 40 91

About IBTrACS Database

This database is a web-friendly format of International Best Track Archive for Climate Stewardship (IBTrACS), a global best track data archive curated by NOAA dating back to 1842.

Updated: 2021-10-19